Columbus, OH (43207)

7:15 AM EST on March 03, 2015 (GMT -0500)
Millbrook | Change Station
CLOSE
Current Station
Personal Weather Station
Location: Columbus, OH
Elevation: 768 ft
Nearby Weather Stations
Active Advisory: Freezing Rain Advisory

Elev 768 ft 39.93 °N, 82.95 °W | Updated 4 minutes ago

Overcast
Overcast
25.9 °F
Feels Like 19 °F
N
6.3
Wind Variable Wind from ENE

Today
High -- | Low -- °F
--% Chance of Precip.
Yesterday
High -- | Low -- °F
Precip. -- in
7:02 AM 6:25 PM
Waxing Gibbous, 96% visible
Pressure 30.13 in
Visibility 10.0 miles
Clouds Overcast 9000 ft
Windchill 19 °F
Dew Point 18 °F
Humidity 71%
Rainfall 0.00 in
Snow Depth Not available.
UV 0 out of 12
Pollen .60 out of 12
Air Quality Not available.
Flu Activity Not available.
METAR KLCK 031155Z AUTO 11007KT 10SM UP OVC090 M04/M09 A3013 RMK AO2 T10391087

More Conditions Fewer Conditions

Pressure 30.13 in
Visibility 10.0 miles
Clouds Overcast 9000 ft
Windchill 19 °F
Dew Point 18 °F
Humidity 71%
Rainfall 0.00 in
Snow Depth Not available.
UV 0 out of 12
Pollen .60 out of 12
Air Quality Not available.
Flu Activity Not available.
METAR KLCK 031155Z AUTO 11007KT 10SM UP OVC090 M04/M09 A3013 RMK AO2 T10391087

More Conditions Fewer Conditions

10-Day Weather Forecast

Almanac

Astronomy

Mar. 03, 2015 Rise Set
Actual Time
Civil Twilight
Nautical Twilight
Astronomical Twilight
Moon
Length of Visible Light
Length of Day
Tomorrow will be .
, % of the Moon is Illuminated

Today's Extremes

State Highs State Lows

Community

WunderPhotos

Upload Photos

1,802,090 photos uploaded!

WunderBlogs® & News

Nearby

Air Quality

  Air Quality AQ Index Pollutant
Not available.

Snow Depth

Station Depth Elevation

Earthquake Activity

City Distance Mag. Time & Date
Minimum magnitude displayed is 2.5.

Coastal Water Temperatures

Place Temperature

Nearby Weather Stations

Freezing Rain Advisory
Statement as of 4:18 AM EST on March 03, 2015

... Freezing Rain Advisory now in effect until 1 PM EST this
afternoon...

* hazard types... light ice accumulation.

* Accumulations... up to five hundredths of an inch of ice.

* Timing... areas of light freezing rain will spread across the
area during the morning hours... changing to rain by early afternoon.

* Impacts... light amounts of icing will cause some roads and
sidewalks to become slippery. Use caution when outdoors as areas
that look wet may be icy. If you must drive... be cautious as you
may encounter ice on roads.

Precautionary/preparedness actions...

A Freezing Rain Advisory means that periods of freezing rain or
freezing drizzle will cause travel difficulties. Be prepared for
slippery roads. Slow down and use caution while driving.